Time;durP1;ratioP1;P1;durP2;ratioP2;P2;SDS_P1;SDS_P2;PMS_P1;PMS_P2;Temp;Humidity;BMP_temperature;BMP_pressure;BME280_temperature;BME280_humidity;BME280_pressure;Samples;Min_cycle;Max_cycle;Signal;HPM_P1;HPM_P2
2022/10/26 00:00:50;;;;;;;3.47;1.73;;;;;;;13.43;92.31;100944.97;5029625;28;20120;-71
2022/10/26 00:03:16;;;;;;;7.75;2.85;;;;;;;13.34;92.60;100947.94;5026326;28;20029;-71
2022/10/26 00:05:42;;;;;;;3.83;1.95;;;;;;;13.24;92.56;100943.16;5029524;28;20091;-71
2022/10/26 00:08:08;;;;;;;3.92;2.30;;;;;;;13.27;92.51;100945.16;5030344;28;20033;-71
2022/10/26 00:10:35;;;;;;;4.55;2.22;;;;;;;13.21;92.47;100941.19;5028359;28;20052;-72
2022/10/26 00:13:01;;;;;;;9.50;2.38;;;;;;;13.13;93.24;100949.56;5032352;28;20038;-71
2022/10/26 00:15:27;;;;;;;4.32;2.22;;;;;;;13.25;92.56;100952.06;5033687;28;20152;-71
2022/10/26 00:17:53;;;;;;;4.63;2.15;;;;;;;13.23;92.07;100946.25;5026494;28;20087;-71
2022/10/26 00:20:18;;;;;;;4.45;2.05;;;;;;;13.19;92.39;100953.53;5034112;28;20053;-70
2022/10/26 00:22:43;;;;;;;4.18;1.70;;;;;;;13.10;92.45;100959.19;5030755;28;20095;-71
2022/10/26 00:25:09;;;;;;;4.13;2.22;;;;;;;13.06;91.87;100938.66;5031948;28;20033;-71
2022/10/26 00:27:34;;;;;;;4.55;1.95;;;;;;;13.01;92.61;100939.69;5031981;28;20022;-71
2022/10/26 00:30:01;;;;;;;4.43;2.13;;;;;;;12.98;92.71;100942.34;5028487;28;20115;-71
2022/10/26 00:32:27;;;;;;;4.95;2.05;;;;;;;13.05;92.43;100953.31;5033242;28;20497;-72
2022/10/26 00:34:53;;;;;;;4.65;1.90;;;;;;;13.14;92.24;100943.03;5027083;28;20038;-71
2022/10/26 00:37:18;;;;;;;4.30;2.28;;;;;;;13.08;91.74;100949.88;5041852;28;20040;-71
2022/10/26 00:39:43;;;;;;;2.38;1.77;;;;;;;13.01;92.14;100947.03;5044931;28;20069;-71
2022/10/26 00:42:16;;;;;;;4.70;2.10;;;;;;;12.99;92.39;100952.03;5033180;28;20048;-71
2022/10/26 00:44:42;;;;;;;2.60;1.85;;;;;;;12.91;92.84;100948.44;5035576;28;20044;-71
2022/10/26 00:47:10;;;;;;;7.13;2.80;;;;;;;12.92;92.20;100954.63;5049079;28;20470;-71
2022/10/26 00:49:35;;;;;;;3.63;1.70;;;;;;;12.80;93.00;100947.50;5033881;28;20126;-71
2022/10/26 00:52:01;;;;;;;4.82;1.88;;;;;;;12.82;92.91;100957.94;5033085;28;20397;-71
2022/10/26 00:54:26;;;;;;;7.75;2.20;;;;;;;12.82;93.36;100958.72;5032068;28;20119;-71
2022/10/26 00:56:54;;;;;;;9.93;1.80;;;;;;;12.86;92.38;100959.56;5041569;28;20029;-71
2022/10/26 00:59:21;;;;;;;2.83;1.95;;;;;;;12.89;92.54;100960.75;5033801;28;20382;-71
2022/10/26 01:01:47;;;;;;;3.35;1.85;;;;;;;12.99;91.87;100952.03;5024562;28;20100;-71
2022/10/26 01:04:14;;;;;;;3.17;1.45;;;;;;;12.90;91.88;100956.91;5032368;28;20041;-71
2022/10/26 01:06:41;;;;;;;2.67;1.65;;;;;;;12.84;91.92;100952.94;5031562;28;20045;-70
2022/10/26 01:09:07;;;;;;;6.07;2.10;;;;;;;12.79;92.52;100950.56;5045396;28;20029;-70
2022/10/26 01:11:32;;;;;;;4.38;1.90;;;;;;;12.76;92.71;100960.16;5024771;28;20025;-69
2022/10/26 01:14:00;;;;;;;4.53;2.03;;;;;;;12.80;92.18;100954.81;5032491;28;20041;-70
2022/10/26 01:16:47;;;;;;;4.28;1.73;;;;;;;12.75;93.00;100949.72;5030202;28;20116;-69
2022/10/26 01:19:38;;;;;;;3.60;1.95;;;;;;;12.72;92.67;100937.69;5039207;28;20045;-69
2022/10/26 01:22:12;;;;;;;3.58;1.92;;;;;;;12.74;92.58;100954.34;5031628;28;20041;-69
2022/10/26 01:24:43;;;;;;;2.85;2.42;;;;;;;12.76;92.58;100937.75;5029348;28;20112;-70
2022/10/26 01:27:16;;;;;;;;;;;;;;;12.69;92.74;100946.53;5033829;28;20046;-69
2022/10/26 01:30:08;;;;;;;3.47;1.60;;;;;;;12.70;93.18;100951.56;5032988;28;19917;-70
2022/10/26 01:32:43;;;;;;;5.07;2.75;;;;;;;12.80;92.38;100944.00;5032587;28;20029;-71
2022/10/26 01:35:14;;;;;;;5.55;2.03;;;;;;;12.72;92.71;100937.69;5027174;28;20499;-70
2022/10/26 01:37:58;;;;;;;3.33;2.13;;;;;;;12.68;92.71;100934.16;5039743;28;20504;-69
2022/10/26 01:40:30;;;;;;;4.85;2.15;;;;;;;12.70;92.43;100937.28;5029499;28;20405;-69
2022/10/26 01:42:59;;;;;;;3.22;1.90;;;;;;;12.60;92.45;100935.97;5033187;28;20587;-69
2022/10/26 01:45:26;;;;;;;3.97;2.03;;;;;;;12.62;92.62;100930.97;5024104;28;20470;-69
2022/10/26 01:47:54;;;;;;;2.47;1.65;;;;;;;12.65;92.86;100941.09;5032783;28;20079;-69
2022/10/26 01:50:20;;;;;;;3.35;2.10;;;;;;;12.64;93.68;100941.44;5032309;28;20042;-71
2022/10/26 01:52:48;;;;;;;3.72;2.05;;;;;;;12.83;94.06;100946.00;5031033;28;20037;-69
2022/10/26 01:55:38;;;;;;;6.88;2.47;;;;;;;12.98;93.94;100940.44;5024886;28;20034;-69
2022/10/26 01:58:27;;;;;;;6.95;2.15;;;;;;;12.92;95.13;100936.47;5026695;28;20192;-70
2022/10/26 02:01:05;;;;;;;5.75;2.53;;;;;;;12.81;96.81;100938.25;5027507;28;20485;-71
2022/10/26 02:04:02;;;;;;;6.05;2.10;;;;;;;12.76;96.57;100941.25;5030735;28;20033;-71
2022/10/26 02:06:45;;;;;;;3.78;2.33;;;;;;;12.76;96.18;100937.75;5014251;28;20037;-71
2022/10/26 02:09:58;;;;;;;3.53;1.67;;;;;;;12.72;96.52;100942.34;5032305;28;20077;-71
2022/10/26 02:12:29;;;;;;;3.60;2.15;;;;;;;12.75;96.35;100936.22;4995532;28;20104;-70
2022/10/26 02:15:07;;;;;;;4.40;2.05;;;;;;;12.94;95.83;100938.81;5018663;28;20029;-71
2022/10/26 02:17:49;;;;;;;3.50;2.03;;;;;;;12.87;96.41;100946.84;5025897;28;20536;-70
2022/10/26 02:20:24;;;;;;;4.65;2.38;;;;;;;12.96;95.78;100940.03;5031761;28;20490;-70
2022/10/26 02:22:52;;;;;;;6.55;2.20;;;;;;;12.95;96.32;100935.00;5025078;28;20055;-70
2022/10/26 02:25:32;;;;;;;4.50;2.00;;;;;;;12.82;97.22;100930.91;5032530;28;21221;-69
2022/10/26 02:28:04;;;;;;;6.53;2.08;;;;;;;12.90;97.26;100930.66;5029745;28;20029;-69
2022/10/26 02:30:32;;;;;;;4.88;2.20;;;;;;;12.79;97.79;100928.94;5028688;28;20040;-70
2022/10/26 02:32:58;;;;;;;6.95;2.50;;;;;;;12.98;96.99;100926.13;5037388;28;20060;-70
2022/10/26 02:35:31;;;;;;;5.28;2.42;;;;;;;13.05;96.52;100928.97;5016976;28;20117;-69
2022/10/26 02:38:00;;;;;;;9.85;2.47;;;;;;;12.98;96.88;100932.34;5019253;28;20064;-70
2022/10/26 02:40:27;;;;;;;3.30;2.08;;;;;;;12.90;97.65;100927.16;5042171;28;20497;-70
2022/10/26 02:42:57;;;;;;;5.82;2.60;;;;;;;12.81;98.19;100926.66;5028906;28;20048;-69
2022/10/26 02:45:27;;;;;;;6.25;2.75;;;;;;;12.80;98.87;100927.78;5027024;28;20029;-69
2022/10/26 02:47:53;;;;;;;6.45;2.58;;;;;;;12.83;98.80;100921.66;5030634;28;20048;-71
2022/10/26 02:50:26;;;;;;;5.88;2.78;;;;;;;12.82;98.79;100923.59;5025822;28;20033;-70
2022/10/26 02:53:09;;;;;;;8.30;2.63;;;;;;;12.86;98.91;100929.81;5024284;28;20092;-69
2022/10/26 02:55:42;;;;;;;4.18;2.35;;;;;;;13.03;97.22;100921.22;5018923;28;20044;-70
2022/10/26 02:58:12;;;;;;;4.00;2.15;;;;;;;12.90;98.02;100919.06;5022320;28;20059;-69
2022/10/26 03:00:38;;;;;;;6.67;2.63;;;;;;;12.61;99.48;100923.25;5022180;28;20489;-69
2022/10/26 03:03:03;;;;;;;5.40;2.83;;;;;;;12.69;99.90;100920.31;5026338;28;20358;-69
2022/10/26 03:05:35;;;;;;;6.60;2.42;;;;;;;12.64;99.41;100920.59;5034327;28;20025;-70
2022/10/26 03:08:01;;;;;;;3.67;2.08;;;;;;;12.69;99.95;100914.91;5031720;28;20568;-69
2022/10/26 03:10:27;;;;;;;6.28;2.65;;;;;;;12.64;100.00;100915.19;5025319;28;20043;-70
2022/10/26 03:12:53;;;;;;;5.07;2.72;;;;;;;12.75;98.82;100923.47;5036960;28;20025;-70
2022/10/26 03:15:19;;;;;;;5.72;2.85;;;;;;;12.84;98.72;100917.81;5029261;28;20053;-69
2022/10/26 03:17:44;;;;;;;5.63;2.92;;;;;;;12.83;98.47;100929.78;5030622;28;20123;-70
2022/10/26 03:20:10;;;;;;;7.53;3.00;;;;;;;12.73;98.38;100914.16;5021750;28;20056;-70
2022/10/26 03:22:35;;;;;;;7.32;2.83;;;;;;;12.76;97.70;100916.91;5031504;28;20032;-71
2022/10/26 03:25:01;;;;;;;4.78;2.85;;;;;;;12.69;97.62;100909.50;5026498;28;20037;-73
2022/10/26 03:27:26;;;;;;;7.80;3.67;;;;;;;12.66;97.70;100914.81;5025568;28;20529;-71
2022/10/26 03:29:52;;;;;;;5.45;2.88;;;;;;;12.70;97.36;100911.03;5031160;28;20052;-71
2022/10/26 03:32:18;;;;;;;10.35;3.08;;;;;;;12.84;97.27;100913.19;5024977;28;20034;-71
2022/10/26 03:34:43;;;;;;;6.38;3.08;;;;;;;12.87;96.65;100917.09;5029565;28;20045;-71
2022/10/26 03:37:11;;;;;;;7.13;3.55;;;;;;;12.87;96.39;100909.78;5035839;28;20041;-71
2022/10/26 03:39:37;;;;;;;9.05;3.05;;;;;;;12.86;96.09;100918.22;5049848;28;20029;-72
2022/10/26 03:42:02;;;;;;;5.15;2.92;;;;;;;12.78;95.91;100911.94;5050781;28;20032;-71
2022/10/26 03:44:28;;;;;;;7.47;3.20;;;;;;;12.62;95.99;100920.19;5031393;28;20072;-71
2022/10/26 03:46:53;;;;;;;7.32;3.28;;;;;;;12.60;95.86;100913.59;5010384;28;20522;-71
2022/10/26 03:49:18;;;;;;;4.05;2.55;;;;;;;12.51;95.70;100919.22;5025382;28;20048;-71
2022/10/26 03:51:44;;;;;;;9.40;3.83;;;;;;;12.56;95.34;100910.81;5010880;28;20479;-71
2022/10/26 03:54:09;;;;;;;6.57;3.85;;;;;;;12.49;95.68;100920.72;5010548;28;20410;-71
2022/10/26 03:56:34;;;;;;;5.40;2.75;;;;;;;12.64;95.49;100904.38;5011097;28;20093;-71
2022/10/26 03:59:00;;;;;;;6.43;2.75;;;;;;;12.61;94.77;100924.03;5006042;28;20037;-71
2022/10/26 04:01:25;;;;;;;12.80;4.47;;;;;;;12.51;95.13;100911.13;5046861;28;20501;-71
2022/10/26 04:03:50;;;;;;;7.85;3.50;;;;;;;12.48;95.37;100917.25;5050704;28;20737;-71
2022/10/26 04:06:16;;;;;;;6.80;3.13;;;;;;;12.41;95.40;100919.03;5049958;28;20029;-71
2022/10/26 04:08:41;;;;;;;7.90;2.97;;;;;;;12.39;95.46;100911.31;5033883;28;20033;-71
2022/10/26 04:11:07;;;;;;;8.98;3.63;;;;;;;12.45;96.09;100915.25;5027929;28;20037;-71
2022/10/26 04:13:32;;;;;;;6.85;3.25;;;;;;;12.45;95.57;100903.66;5040652;28;20131;-71
2022/10/26 04:15:57;;;;;;;10.88;4.53;;;;;;;12.50;95.48;100916.91;5049012;28;20037;-71
2022/10/26 04:18:23;;;;;;;8.70;3.22;;;;;;;12.41;95.27;100917.13;5010442;28;20042;-71
2022/10/26 04:20:49;;;;;;;7.45;3.83;;;;;;;12.32;96.26;100918.50;5020821;23;20046;-66
2022/10/26 04:23:16;;;;;;;8.98;3.97;;;;;;;12.40;96.33;100917.50;5029608;28;20524;-66
2022/10/26 04:25:42;;;;;;;14.07;4.07;;;;;;;12.29;96.96;100922.69;5029556;28;20036;-66
2022/10/26 04:28:10;;;;;;;7.57;3.80;;;;;;;12.20;97.10;100919.47;5027396;28;20388;-67
2022/10/26 04:30:36;;;;;;;7.75;3.80;;;;;;;12.27;97.33;100908.00;5029837;28;20037;-67
2022/10/26 04:33:02;;;;;;;7.63;3.80;;;;;;;12.31;97.75;100908.84;5030429;28;20106;-67
2022/10/26 04:35:28;;;;;;;11.75;3.80;;;;;;;12.39;97.53;100905.91;5027898;28;20120;-66
2022/10/26 04:37:58;;;;;;;8.45;4.00;;;;;;;12.41;97.35;100908.22;5016482;28;20081;-67
2022/10/26 04:40:23;;;;;;;7.35;3.38;;;;;;;12.43;96.85;100909.44;5028991;28;20098;-67
2022/10/26 04:42:49;;;;;;;11.50;3.97;;;;;;;12.52;96.07;100907.28;5014255;28;20029;-67
2022/10/26 04:45:15;;;;;;;6.65;3.40;;;;;;;12.43;96.88;100904.03;5018583;28;20038;-67
2022/10/26 04:47:41;;;;;;;9.63;3.17;;;;;;;12.52;96.44;100907.28;5003295;28;20039;-66
2022/10/26 04:50:08;;;;;;;10.73;4.07;;;;;;;12.53;96.66;100906.16;4996725;28;20041;-66
2022/10/26 04:52:34;;;;;;;8.88;4.20;;;;;;;12.51;96.36;100896.84;5008751;28;20033;-67
2022/10/26 04:55:00;;;;;;;8.10;3.53;;;;;;;12.51;95.88;100907.63;4998152;28;20128;-66
2022/10/26 04:57:25;;;;;;;10.98;4.38;;;;;;;12.54;96.24;100896.88;5003505;28;20727;-67
2022/10/26 04:59:51;;;;;;;10.27;3.97;;;;;;;12.46;96.27;100902.53;5016723;28;20386;-67
2022/10/26 05:02:16;;;;;;;14.02;4.78;;;;;;;12.41;97.52;100903.63;5017927;28;20063;-67
2022/10/26 05:04:41;;;;;;;8.55;3.65;;;;;;;12.31;98.82;100895.34;5018060;28;20039;-67
2022/10/26 05:07:07;;;;;;;9.27;4.18;;;;;;;12.30;98.77;100897.25;5003735;28;20030;-67
2022/10/26 05:09:32;;;;;;;9.45;4.22;;;;;;;12.31;98.76;100890.72;5012610;28;20069;-66
2022/10/26 05:11:57;;;;;;;10.77;4.50;;;;;;;12.37;98.87;100894.69;5013388;28;20547;-67
2022/10/26 05:14:23;;;;;;;9.05;4.07;;;;;;;12.36;98.98;100893.13;5013955;28;20032;-67
2022/10/26 05:16:50;;;;;;;11.65;3.90;;;;;;;12.39;99.11;100902.41;5011550;28;20040;-67
2022/10/26 05:19:15;;;;;;;6.93;3.75;;;;;;;12.17;98.55;100892.41;5004150;28;20053;-66
2022/10/26 05:21:41;;;;;;;11.43;4.03;;;;;;;12.44;98.46;100888.63;5011515;28;20038;-67
2022/10/26 05:24:07;;;;;;;10.50;4.15;;;;;;;12.41;98.46;100882.00;5004976;28;20037;-65
2022/10/26 05:26:32;;;;;;;8.85;4.45;;;;;;;12.44;97.94;100894.81;5008024;28;20042;-66
2022/10/26 05:28:58;;;;;;;9.35;3.58;;;;;;;12.36;97.90;100901.22;5004664;28;20076;-66
2022/10/26 05:31:23;;;;;;;16.80;4.80;;;;;;;12.37;97.53;100891.97;5004572;28;20058;-66
2022/10/26 05:33:49;;;;;;;9.02;3.35;;;;;;;12.32;98.10;100894.19;5012098;28;20048;-66
2022/10/26 05:36:16;;;;;;;6.72;3.63;;;;;;;12.30;98.30;100881.06;5006719;28;20104;-65
2022/10/26 05:38:41;;;;;;;6.88;3.72;;;;;;;12.27;98.49;100881.00;5004515;28;20112;-66
2022/10/26 05:41:07;;;;;;;9.00;4.30;;;;;;;12.24;98.25;100887.91;5004791;28;20116;-66
2022/10/26 05:43:32;;;;;;;9.23;4.40;;;;;;;12.20;99.36;100891.66;5008563;28;20033;-65
2022/10/26 05:45:58;;;;;;;7.00;3.25;;;;;;;12.23;98.52;100890.97;5006649;28;20089;-65
2022/10/26 05:48:23;;;;;;;7.57;4.15;;;;;;;12.23;98.77;100890.97;5022430;28;20084;-66
2022/10/26 05:50:48;;;;;;;10.55;4.40;;;;;;;12.36;98.19;100893.13;5009504;28;20448;-65
2022/10/26 05:53:14;;;;;;;6.82;3.45;;;;;;;12.23;98.36;100891.72;5020015;28;20029;-66
2022/10/26 05:55:40;;;;;;;10.13;3.97;;;;;;;12.35;97.97;100901.59;5012371;28;20422;-65
2022/10/26 05:58:13;;;;;;;13.45;4.78;;;;;;;12.24;98.05;100901.41;5002307;28;20049;-65
2022/10/26 06:00:55;;;;;;;8.05;3.90;;;;;;;12.26;98.27;100901.03;4998635;28;20087;-65
2022/10/26 06:03:44;;;;;;;8.45;4.22;;;;;;;12.17;98.05;100903.19;5013964;28;20038;-66
2022/10/26 06:06:12;;;;;;;9.40;3.65;;;;;;;12.10;97.37;100911.19;5013168;28;20030;-66
2022/10/26 06:08:38;;;;;;;11.57;4.43;;;;;;;12.07;97.86;100909.19;5000923;28;20041;-66
2022/10/26 06:11:04;;;;;;;11.70;5.30;;;;;;;12.10;97.69;100914.63;5014613;28;20458;-66
2022/10/26 06:13:29;;;;;;;9.18;3.80;;;;;;;12.08;97.08;100913.47;5014630;28;20041;-67
2022/10/26 06:16:43;;;;;;;8.30;4.00;;;;;;;12.07;96.63;100918.06;5021442;28;20041;-66
2022/10/26 06:19:27;;;;;;;7.68;3.95;;;;;;;12.04;96.63;100918.75;4978583;28;20097;-65
2022/10/26 06:22:39;;;;;;;9.73;4.20;;;;;;;12.08;96.49;100916.91;5000034;28;20072;-66
2022/10/26 06:25:32;;;;;;;9.85;3.95;;;;;;;12.05;96.59;100927.66;4995647;28;20040;-65
2022/10/26 06:28:25;;;;;;;9.20;3.88;;;;;;;12.04;96.54;100918.75;5019513;28;20048;-65
2022/10/26 06:30:51;;;;;;;6.18;3.03;;;;;;;12.00;97.26;100926.00;5019262;28;20030;-66
2022/10/26 06:33:16;;;;;;;6.88;3.50;;;;;;;11.99;97.13;100921.78;5022818;28;20026;-65
2022/10/26 06:36:10;;;;;;;6.97;3.53;;;;;;;11.96;96.66;100925.19;5012305;28;20077;-65
2022/10/26 06:38:39;;;;;;;9.13;4.07;;;;;;;11.94;96.56;100932.06;5000817;28;20034;-65
2022/10/26 06:41:05;;;;;;;8.73;4.32;;;;;;;11.95;97.08;100930.94;5013618;28;20042;-65
2022/10/26 06:43:34;;;;;;;18.80;6.95;;;;;;;11.98;96.73;100922.13;5032435;28;20037;-65
2022/10/26 06:46:05;;;;;;;16.60;6.38;;;;;;;11.96;96.41;100927.91;4997719;28;20033;-66
2022/10/26 06:48:34;;;;;;;;;;;;;;;11.94;97.26;100930.16;5013736;28;20448;-66
2022/10/26 06:50:59;;;;;;;12.77;5.35;;;;;;;11.94;97.07;100935.56;5014532;28;19916;-66
2022/10/26 06:53:34;;;;;;;13.65;6.00;;;;;;;11.92;97.72;100927.03;5027285;28;20460;-66
2022/10/26 06:56:00;;;;;;;11.43;4.88;;;;;;;12.01;97.44;100927.59;5012341;28;20553;-66
2022/10/26 06:58:33;;;;;;;7.00;4.00;;;;;;;11.98;97.27;100933.69;5003544;28;20043;-66
2022/10/26 07:01:00;;;;;;;6.90;3.28;;;;;;;11.96;97.33;100937.91;5001839;28;20128;-65
2022/10/26 07:03:25;;;;;;;6.93;3.35;;;;;;;11.97;97.47;100934.84;5005543;28;20033;-66
2022/10/26 07:05:51;;;;;;;7.10;3.72;;;;;;;11.98;97.14;100941.78;5013579;28;20541;-66
2022/10/26 07:08:17;;;;;;;5.13;2.75;;;;;;;11.99;96.90;100940.66;5013292;28;20402;-66
2022/10/26 07:10:43;;;;;;;6.72;3.28;;;;;;;12.00;96.76;100942.22;5007402;28;20060;-66
2022/10/26 07:13:10;;;;;;;5.80;2.70;;;;;;;11.98;97.06;100941.03;5017831;28;20121;-66
2022/10/26 07:15:36;;;;;;;9.77;3.85;;;;;;;12.05;96.71;100944.63;5014770;28;20045;-66
2022/10/26 07:18:06;;;;;;;6.18;3.17;;;;;;;12.05;97.13;100944.63;5016769;28;20056;-66
2022/10/26 07:20:36;;;;;;;6.68;3.28;;;;;;;12.00;97.12;100950.31;5018436;28;20043;-66
2022/10/26 07:23:02;;;;;;;5.65;3.22;;;;;;;12.08;98.04;100946.59;5030836;28;20040;-66
2022/10/26 07:25:31;;;;;;;6.82;3.35;;;;;;;12.11;97.87;100954.00;5010170;28;20029;-66
2022/10/26 07:27:58;;;;;;;7.53;2.92;;;;;;;12.15;97.74;100946.75;5009671;28;20037;-66
2022/10/26 07:30:28;;;;;;;7.38;3.28;;;;;;;12.26;98.29;100955.03;5018170;28;20034;-66
2022/10/26 07:33:07;;;;;;;7.75;3.47;;;;;;;12.41;98.15;100952.25;5021418;28;20038;-65
2022/10/26 07:35:33;;;;;;;6.65;3.38;;;;;;;12.51;97.79;100965.16;5012469;28;20037;-66
2022/10/26 07:37:59;;;;;;;10.27;3.78;;;;;;;12.58;97.98;100961.81;5026523;28;20379;-66
2022/10/26 07:40:25;;;;;;;7.80;3.83;;;;;;;12.73;98.22;100958.19;5014845;28;20094;-66
2022/10/26 07:42:51;;;;;;;10.55;4.07;;;;;;;12.85;99.00;100963.41;5013824;28;20376;-66
2022/10/26 07:45:18;;;;;;;8.35;4.07;;;;;;;13.04;98.39;100957.94;5010404;28;20125;-66
2022/10/26 07:47:45;;;;;;;6.60;3.05;;;;;;;13.12;98.13;100961.53;5011498;28;20041;-66
2022/10/26 07:50:11;;;;;;;7.97;3.15;;;;;;;13.19;99.14;100950.81;5013691;28;20038;-65
2022/10/26 07:52:37;;;;;;;8.40;3.75;;;;;;;13.33;98.81;100951.81;5014510;28;20029;-65
2022/10/26 07:55:04;;;;;;;8.00;3.75;;;;;;;13.44;98.84;100954.66;5010372;28;20046;-65
2022/10/26 07:57:30;;;;;;;8.20;3.47;;;;;;;13.63;98.87;100961.88;5011310;28;20042;-65
2022/10/26 07:59:55;;;;;;;7.75;3.65;;;;;;;13.77;99.01;100957.41;5013794;28;20049;-65
2022/10/26 08:02:21;;;;;;;11.57;4.18;;;;;;;13.96;98.83;100948.31;5010899;28;20410;-65
2022/10/26 08:04:46;;;;;;;7.75;3.28;;;;;;;14.07;98.21;100955.41;5013205;28;20037;-65
2022/10/26 08:07:11;;;;;;;8.00;3.85;;;;;;;14.28;98.36;100963.81;5014598;28;20041;-66
2022/10/26 08:09:37;;;;;;;8.10;4.07;;;;;;;14.31;99.13;100962.28;5011897;28;20040;-65
2022/10/26 08:12:05;;;;;;;8.95;3.55;;;;;;;14.49;97.84;100965.94;5011427;28;20350;-65
2022/10/26 08:14:31;;;;;;;8.52;4.13;;;;;;;14.64;98.30;100964.13;5013975;28;20482;-65
2022/10/26 08:16:56;;;;;;;6.85;3.03;;;;;;;14.80;97.98;100968.16;5010985;28;20033;-65
2022/10/26 08:19:22;;;;;;;9.02;3.78;;;;;;;14.92;96.67;100973.31;5011475;28;20045;-65
2022/10/26 08:21:47;;;;;;;9.60;4.28;;;;;;;14.97;97.24;100964.81;5013079;28;20136;-65
2022/10/26 08:24:13;;;;;;;5.80;3.35;;;;;;;15.14;96.34;100963.38;5013335;28;20038;-66
2022/10/26 08:26:38;;;;;;;6.50;3.08;;;;;;;15.08;96.28;100971.09;5012689;28;20033;-65
2022/10/26 08:29:04;;;;;;;10.43;2.75;;;;;;;15.24;96.76;100966.16;5012038;28;20040;-65
2022/10/26 08:31:29;;;;;;;7.07;3.08;;;;;;;15.37;95.98;100974.75;5013761;28;20041;-65
2022/10/26 08:33:55;;;;;;;6.35;3.22;;;;;;;15.42;94.59;100971.72;5017647;28;20117;-65
2022/10/26 08:36:25;;;;;;;4.97;2.63;;;;;;;15.19;95.56;100973.88;5001172;28;20105;-65
2022/10/26 08:38:51;;;;;;;4.95;2.78;;;;;;;15.18;95.33;100975.81;5017185;28;20049;-66
2022/10/26 08:41:22;;;;;;;6.80;2.63;;;;;;;15.28;95.49;100969.69;5014697;28;20489;-65
2022/10/26 08:43:53;;;;;;;8.32;3.20;;;;;;;15.18;95.25;100969.59;4998076;28;20034;-65
2022/10/26 08:46:26;;;;;;;6.30;3.08;;;;;;;15.15;95.56;100976.56;5007629;28;20670;-65
2022/10/26 08:48:54;;;;;;;6.10;2.70;;;;;;;15.25;95.11;100973.13;5015361;28;20495;-65
2022/10/26 08:51:34;;;;;;;4.38;2.08;;;;;;;15.34;95.23;100968.16;5016394;28;20038;-65
2022/10/26 08:54:08;;;;;;;7.70;2.40;;;;;;;15.52;94.45;100957.44;5014939;28;20030;-65
2022/10/26 08:56:44;;;;;;;3.47;2.20;;;;;;;15.58;94.23;100955.91;4989798;28;20136;-66
2022/10/26 08:59:30;;;;;;;4.03;2.13;;;;;;;15.84;93.68;100957.56;5018630;28;20037;-65
2022/10/26 09:01:56;;;;;;;4.93;2.40;;;;;;;15.98;92.86;100952.19;5014036;28;20049;-65
2022/10/26 09:04:26;;;;;;;5.68;1.92;;;;;;;16.06;92.60;100962.72;5016766;28;20046;-66
2022/10/26 09:07:13;;;;;;;3.20;2.08;;;;;;;16.21;92.67;100952.63;5018456;28;20033;-65
2022/10/26 09:09:51;;;;;;;4.22;2.22;;;;;;;16.45;91.23;100953.84;4995081;28;20045;-65
2022/10/26 09:12:37;;;;;;;3.25;1.95;;;;;;;16.58;91.14;100942.25;4998039;28;20137;-65
2022/10/26 09:15:02;;;;;;;3.50;1.85;;;;;;;16.73;90.88;100956.59;4998150;28;20517;-65
2022/10/26 09:17:46;;;;;;;3.95;1.67;;;;;;;16.90;90.58;100953.09;5009027;28;20479;-65
2022/10/26 09:20:36;;;;;;;3.33;2.00;;;;;;;16.88;88.82;100941.81;5018540;28;20132;-65
2022/10/26 09:23:17;;;;;;;7.80;2.10;;;;;;;17.09;88.85;100934.41;5017456;28;20132;-65
2022/10/26 09:25:50;;;;;;;7.55;1.73;;;;;;;17.29;87.68;100932.03;5013576;28;20054;-65
2022/10/26 09:28:17;;;;;;;3.42;1.33;;;;;;;17.33;87.01;100932.81;5016061;28;20037;-65
2022/10/26 09:30:44;;;;;;;4.65;1.75;;;;;;;17.28;87.26;100937.88;5017414;28;20030;-65
2022/10/26 09:33:23;;;;;;;2.50;1.85;;;;;;;17.37;85.27;100939.03;5014332;28;20042;-65
2022/10/26 09:35:54;;;;;;;4.18;1.40;;;;;;;17.40;85.99;100932.78;5014460;28;20037;-65
2022/10/26 09:38:30;;;;;;;3.13;1.50;;;;;;;17.53;85.43;100947.59;5015946;28;20521;-66
2022/10/26 09:41:13;;;;;;;1.98;1.30;;;;;;;17.73;85.59;100940.47;5016056;28;20044;-65
2022/10/26 09:44:08;;;;;;;2.10;1.50;;;;;;;17.74;85.63;100936.59;5012493;28;20042;-66
2022/10/26 09:46:51;;;;;;;3.35;2.05;;;;;;;17.58;84.15;100935.47;4994234;28;20474;-65
2022/10/26 09:49:22;;;;;;;3.65;1.52;;;;;;;17.84;84.13;100933.06;4998525;28;20068;-65
2022/10/26 09:51:48;;;;;;;2.20;1.17;;;;;;;17.95;82.98;100944.66;5015764;28;20042;-66
2022/10/26 09:54:17;;;;;;;2.33;1.30;;;;;;;17.80;81.90;100940.47;5016868;28;20026;-65
2022/10/26 09:56:46;;;;;;;2.35;1.92;;;;;;;17.82;82.00;100949.03;5015863;28;20045;-65
2022/10/26 09:59:12;;;;;;;3.15;1.00;;;;;;;17.86;82.26;100943.56;5013902;28;20044;-65
2022/10/26 10:01:38;;;;;;;4.18;1.15;;;;;;;17.98;82.15;100941.13;5012499;28;20168;-66
2022/10/26 10:04:12;;;;;;;2.55;1.98;;;;;;;18.07;81.81;100956.28;5013875;28;20061;-66
2022/10/26 10:06:39;;;;;;;4.93;1.52;;;;;;;18.09;81.49;100951.22;5016477;28;20033;-66
2022/10/26 10:09:11;;;;;;;2.67;1.00;;;;;;;17.97;80.30;100938.81;4998401;28;20022;-65
2022/10/26 10:11:40;;;;;;;2.15;1.15;;;;;;;17.90;79.97;100944.31;5011597;28;20040;-65
2022/10/26 10:14:16;;;;;;;1.63;1.00;;;;;;;17.96;80.45;100943.47;5013731;28;20540;-65
2022/10/26 10:16:52;;;;;;;1.85;1.20;;;;;;;18.15;80.40;100957.81;5016641;28;20038;-65
2022/10/26 10:19:29;;;;;;;1.40;0.80;;;;;;;18.30;80.61;100940.97;5011848;28;20033;-65
2022/10/26 10:22:25;;;;;;;3.40;1.17;;;;;;;18.34;79.76;100943.66;5032283;23;20050;-70
2022/10/26 10:24:58;;;;;;;2.25;1.08;;;;;;;18.33;80.36;100950.31;5009275;28;20049;-69
2022/10/26 10:27:24;;;;;;;4.68;1.25;;;;;;;18.50;80.04;100957.63;5013004;28;20045;-70
2022/10/26 10:29:55;;;;;;;1.70;1.08;;;;;;;18.58;80.04;100945.47;5008107;28;20062;-70
2022/10/26 10:32:24;;;;;;;1.20;1.00;;;;;;;18.59;79.66;100949.75;5029248;28;20038;-70
2022/10/26 10:34:51;;;;;;;1.65;0.82;;;;;;;18.77;78.82;100947.66;5030157;28;20548;-70
2022/10/26 10:37:29;;;;;;;1.92;1.10;;;;;;;18.66;78.61;100944.25;5028828;28;20033;-70
2022/10/26 10:40:00;;;;;;;5.22;1.42;;;;;;;18.59;79.16;100952.47;5021684;28;20037;-70
2022/10/26 10:42:30;;;;;;;1.38;1.15;;;;;;;18.49;79.72;100943.19;5031830;28;20457;-70
2022/10/26 10:44:57;;;;;;;2.30;1.25;;;;;;;18.33;79.72;100955.75;5026672;28;20037;-71
2022/10/26 10:47:31;;;;;;;2.05;0.80;;;;;;;18.57;79.43;100952.09;5012011;28;20042;-70
2022/10/26 10:50:01;;;;;;;2.38;1.08;;;;;;;18.65;78.82;100945.41;5017561;28;20052;-70
2022/10/26 10:52:32;;;;;;;2.25;0.90;;;;;;;18.74;78.76;100948.44;5014111;28;20046;-70
2022/10/26 10:55:12;;;;;;;2.60;1.03;;;;;;;18.83;78.52;100949.53;5031096;28;20056;-70
2022/10/26 10:57:40;;;;;;;2.10;1.17;;;;;;;18.83;78.87;100952.25;5026052;28;20042;-70
2022/10/26 11:00:10;;;;;;;3.38;1.35;;;;;;;18.41;78.89;100951.78;5018264;28;20084;-70
2022/10/26 11:02:53;;;;;;;2.88;1.40;;;;;;;18.43;79.64;100952.19;5011260;28;20038;-72
2022/10/26 11:06:00;;;;;;;1.60;1.13;;;;;;;18.56;79.41;100947.84;4993783;28;20033;-70
2022/10/26 11:08:51;;;;;;;3.53;1.60;;;;;;;18.72;79.45;100951.59;4990153;28;20050;-71
2022/10/26 11:11:42;;;;;;;1.80;0.98;;;;;;;18.84;78.82;100942.13;5028336;28;20045;-70
2022/10/26 11:14:23;;;;;;;1.48;1.00;;;;;;;18.93;78.45;100951.41;5031234;28;20037;-71
2022/10/26 11:16:54;;;;;;;;;;;;;;;18.88;78.13;100942.88;5028967;28;20037;-70
2022/10/26 11:19:36;;;;;;;1.98;0.90;;;;;;;18.75;78.20;100948.06;5029392;28;19920;-71
2022/10/26 11:22:07;;;;;;;3.15;1.35;;;;;;;18.71;79.04;100950.03;5029339;28;20041;-71
2022/10/26 11:24:46;;;;;;;3.00;1.50;;;;;;;18.66;79.39;100953.19;5025217;28;20045;-70
2022/10/26 11:27:17;;;;;;;4.05;1.38;;;;;;;18.74;79.72;100956.63;5018309;28;20060;-70
2022/10/26 11:30:12;;;;;;;2.78;1.35;;;;;;;18.47;80.16;100955.66;5020928;28;20040;-70
2022/10/26 11:32:45;;;;;;;1.88;1.40;;;;;;;18.46;80.51;100948.69;5013151;28;20040;-71
2022/10/26 11:35:17;;;;;;;2.40;1.45;;;;;;;18.52;80.54;100945.13;5025896;28;20159;-70
2022/10/26 11:37:51;;;;;;;4.80;1.52;;;;;;;18.62;80.75;100944.25;5023588;28;20092;-71
2022/10/26 11:40:32;;;;;;;2.38;1.27;;;;;;;18.77;80.46;100953.91;5020793;28;20033;-69